Time;durP1;ratioP1;P1;durP2;ratioP2;P2;SDS_P1;SDS_P2;PMS_P1;PMS_P2;Temp;Humidity;BMP_temperature;BMP_pressure;BME280_temperature;BME280_humidity;BME280_pressure;Samples;Min_cycle;Max_cycle;Signal;HPM_P1;HPM_P2
2023/01/21 00:02:17;;;;;;;;;;;;;;;;;;5045720;28;20355;-82
2023/01/21 00:04:43;;;;;;;;;;;;;;;;;;5043711;28;20349;-81
2023/01/21 00:07:09;;;;;;;;;;;;;;;;;;5054279;28;19935;-81
2023/01/21 00:09:35;;;;;;;;;;;;;;;;;;5057997;28;19909;-83
2023/01/21 00:12:01;;;;;;;;;;;;;;;;;;5040546;28;19935;-81
2023/01/21 00:14:27;;;;;;;;;;;;;;;;;;5060579;28;20012;-81
2023/01/21 00:16:55;;;;;;;;;;;;;;;;;;5058374;28;19951;-81
2023/01/21 00:19:24;;;;;;;;;;;;;;;;;;5023149;28;19921;-81
2023/01/21 00:21:50;;;;;;;;;;;;;;;;;;5045243;28;19909;-80
2023/01/21 00:24:15;;;;;;;;;;;;;;;;;;5058027;28;19962;-81
2023/01/21 00:26:41;;;;;;;;;;;;;;;;;;5039957;28;19913;-82
2023/01/21 00:29:10;;;;;;;;;;;;;;;;;;5021093;28;19995;-81
2023/01/21 00:31:36;;;;;;;;;;;;;;;;;;5054183;28;20360;-81
2023/01/21 00:34:02;;;;;;;;;;;;;;;;;;5052717;28;19939;-82
2023/01/21 00:36:28;;;;;;;;;;;;;;;;;;5036465;28;19913;-82
2023/01/21 00:38:54;;;;;;;;;;;;;;;;;;5025508;28;19963;-80
2023/01/21 00:41:20;;;;;;;;;;;;;;;;;;5043399;28;20376;-81
2023/01/21 00:43:46;;;;;;;;;;;;;;;;;;5054222;28;20043;-83
2023/01/21 00:46:12;;;;;;;;;;;;;;;;;;5052835;28;19909;-80
2023/01/21 00:48:39;;;;;;;;;;;;;;;;;;5054301;28;20419;-82
2023/01/21 00:51:05;;;;;;;;;;;;;;;;;;5038224;28;19909;-82
2023/01/21 00:53:30;;;;;;;;;;;;;;;;;;5054704;28;19909;-81
2023/01/21 00:55:56;;;;;;;;;;;;;;;;;;5056387;28;20283;-84
2023/01/21 00:58:22;;;;;;;;;;;;;;;;;;5038303;28;19917;-83
2023/01/21 01:00:48;;;;;;;;;;;;;;;;;;5057140;28;19909;-82
2023/01/21 01:03:14;;;;;;;;;;;;;;;;;;5055208;28;20037;-82
2023/01/21 01:05:40;;;;;;;;;;;;;;;;;;5040179;28;19909;-81
2023/01/21 01:08:06;;;;;;;;;;;;;;;;;;5057747;28;19912;-80
2023/01/21 01:10:32;;;;;;;;;;;;;;;;;;5040299;28;19968;-83
2023/01/21 01:12:58;;;;;;;;;;;;;;;;;;5036943;28;20413;-84
2023/01/21 01:15:24;;;;;;;;;;;;;;;;;;5048262;28;19914;-83
2023/01/21 01:17:50;;;;;;;;;;;;;;;;;;5025433;28;19912;-81
2023/01/21 01:20:16;;;;;;;;;;;;;;;;;;5039823;28;19908;-80
2023/01/21 01:22:42;;;;;;;;;;;;;;;;;;5057002;28;19952;-81
2023/01/21 01:25:08;;;;;;;;;;;;;;;;;;5056899;28;19946;-81
2023/01/21 01:27:34;;;;;;;;;;;;;;;;;;5022767;28;19920;-78
2023/01/21 01:30:00;;;;;;;;;;;;;;;;;;5056461;28;19916;-80
2023/01/21 01:32:26;;;;;;;;;;;;;;;;;;5038531;28;19908;-79
2023/01/21 01:34:51;;;;;;;;;;;;;;;;;;5056355;28;19913;-80
2023/01/21 01:37:20;;;;;;;;;;;;;;;;;;5066422;28;19908;-81
2023/01/21 01:39:46;;;;;;;;;;;;;;;;;;5056858;28;19939;-80
2023/01/21 01:42:12;;;;;;;;;;;;;;;;;;5054752;28;20383;-79
2023/01/21 01:44:38;;;;;;;;;;;;;;;;;;5056349;28;20007;-80
2023/01/21 01:47:04;;;;;;;;;;;;;;;;;;5056486;28;19913;-80
2023/01/21 01:49:29;;;;;;;;;;;;;;;;;;5047538;28;19920;-80
2023/01/21 01:51:55;;;;;;;;;;;;;;;;;;5051751;28;19909;-79
2023/01/21 01:54:21;;;;;;;;;;;;;;;;;;5054195;28;19918;-81
2023/01/21 01:56:49;;;;;;;;;;;;;;;;;;5042817;28;20372;-81
2023/01/21 01:59:15;;;;;;;;;;;;;;;;;;5041517;28;19916;-81
2023/01/21 02:01:41;;;;;;;;;;;;;;;;;;5055238;28;19909;-80
2023/01/21 02:04:07;;;;;;;;;;;;;;;;;;5032665;28;19914;-81
2023/01/21 02:06:35;;;;;;;;;;;;;;;;;;5020759;28;19967;-82
2023/01/21 02:09:02;;;;;;;;;;;;;;;;;;5036902;28;19917;-81
2023/01/21 02:11:28;;;;;;;;;;;;;;;;;;5024820;28;19917;-80
2023/01/21 02:13:54;;;;;;;;;;;;;;;;;;5024385;28;20393;-81
2023/01/21 02:16:22;;;;;;;;;;;;;;;;;;5058135;28;19909;-82
2023/01/21 02:18:48;;;;;;;;;;;;;;;;;;5039400;28;20542;-82
2023/01/21 02:21:16;;;;;;;;;;;;;;;;;;5035795;28;19920;-82
2023/01/21 02:23:42;;;;;;;;;;;;;;;;;;5038045;28;19912;-82
2023/01/21 02:26:08;;;;;;;;;;;;;;;;;;5025472;28;20283;-80
2023/01/21 02:28:34;;;;;;;;;;;;;;;;;;5018205;28;19910;-80
2023/01/21 02:31:00;;;;;;;;;;;;;;;;;;5049105;28;20483;-82
2023/01/21 02:33:26;;;;;;;;;;;;;;;;;;5049994;28;19917;-81
2023/01/21 02:35:51;;;;;;;;;;;;;;;;;;5050303;28;19923;-83
2023/01/21 02:38:17;;;;;;;;;;;;;;;;;;5049771;28;20055;-82
2023/01/21 02:40:43;;;;;;;;;;;;;;;;;;5050893;28;19932;-80
2023/01/21 02:43:09;;;;;;;;;;;;;;;;;;5063981;28;19914;-82
2023/01/21 02:45:38;;;;;;;;;;;;;;;;;;5041764;28;19920;-81
2023/01/21 02:48:05;;;;;;;;;;;;;;;;;;5037592;28;19913;-80
2023/01/21 02:50:31;;;;;;;;;;;;;;;;;;5040584;28;19913;-83
2023/01/21 02:52:56;;;;;;;;;;;;;;;;;;5039096;28;19967;-81
2023/01/21 02:55:22;;;;;;;;;;;;;;;;;;5040515;28;19913;-80
2023/01/21 02:57:48;;;;;;;;;;;;;;;;;;5038280;28;19928;-82
2023/01/21 03:00:14;;;;;;;;;;;;;;;;;;5039426;28;19913;-81
2023/01/21 03:02:40;;;;;;;;;;;;;;;;;;5035512;28;19920;-82
2023/01/21 03:05:08;;;;;;;;;;;;;;;;;;5038111;28;20386;-82
2023/01/21 03:07:42;;;;;;;;;;;;;;;;;;5035688;28;19913;-80
2023/01/21 03:10:08;;;;;;;;;;;;;;;;;;5052213;28;20364;-81
2023/01/21 03:12:33;;;;;;;;;;;;;;;;;;5051657;28;19937;-81
2023/01/21 03:17:45;;;;;;;;;;;;;;;;;;5037861;28;19924;-82
2023/01/21 03:20:11;;;;;;;;;;;;;;;;;;5037435;28;19920;-82
2023/01/21 03:22:37;;;;;;;;;;;;;;;;;;5040776;28;19948;-81
2023/01/21 03:25:05;;;;;;;;;;;;;;;;;;5041127;28;20004;-82
2023/01/21 03:27:31;;;;;;;;;;;;;;;;;;5032689;28;19921;-80
2023/01/21 03:29:57;;;;;;;;;;;;;;;;;;5044868;28;19920;-80
2023/01/21 03:32:23;;;;;;;;;;;;;;;;;;5043451;28;19944;-82
2023/01/21 03:34:49;;;;;;;;;;;;;;;;;;5042347;28;19955;-83
2023/01/21 03:37:17;;;;;;;;;;;;;;;;;;5039572;28;19973;-82
2023/01/21 03:39:43;;;;;;;;;;;;;;;;;;5033425;28;19913;-81
2023/01/21 03:42:09;;;;;;;;;;;;;;;;;;5040732;28;19916;-81
2023/01/21 03:44:35;;;;;;;;;;;;;;;;;;5040175;28;19909;-80
2023/01/21 03:47:01;;;;;;;;;;;;;;;;;;5040261;28;20371;-83
2023/01/21 03:49:27;;;;;;;;;;;;;;;;;;5041832;28;19992;-80
2023/01/21 03:51:52;;;;;;;;;;;;;;;;;;5040157;28;19919;-81
2023/01/21 03:54:18;;;;;;;;;;;;;;;;;;5032322;28;19921;-82
2023/01/21 03:56:44;;;;;;;;;;;;;;;;;;5045647;28;19921;-82
2023/01/21 03:59:10;;;;;;;;;;;;;;;;;;5048349;28;19924;-82
2023/01/21 04:01:38;;;;;;;;;;;;;;;;;;5052151;28;19912;-81
2023/01/21 04:04:04;;;;;;;;;;;;;;;;;;5061987;28;19913;-81
2023/01/21 04:06:30;;;;;;;;;;;;;;;;;;5060921;28;19913;-80
2023/01/21 04:08:56;;;;;;;;;;;;;;;;;;5042961;28;19919;-80
2023/01/21 04:11:22;;;;;;;;;;;;;;;;;;5060770;28;19917;-82
2023/01/21 04:13:48;;;;;;;;;;;;;;;;;;5072275;28;19919;-80
2023/01/21 04:16:14;;;;;;;;;;;;;;;;;;5060536;28;20295;-80
2023/01/21 04:18:39;;;;;;;;;;;;;;;;;;5062293;28;19916;-81
2023/01/21 04:21:05;;;;;;;;;;;;;;;;;;5053762;28;19917;-81
2023/01/21 04:23:31;;;;;;;;;;;;;;;;;;5024880;28;19913;-81
2023/01/21 04:25:57;;;;;;;;;;;;;;;;;;5038936;28;19947;-80
2023/01/21 04:28:25;;;;;;;;;;;;;;;;;;5063536;28;19976;-83
2023/01/21 04:30:51;;;;;;;;;;;;;;;;;;5055671;28;19976;-79
2023/01/21 04:33:17;;;;;;;;;;;;;;;;;;5038815;28;19959;-82
2023/01/21 04:35:43;;;;;;;;;;;;;;;;;;5045000;28;19991;-80
2023/01/21 04:38:09;;;;;;;;;;;;;;;;;;5038725;28;20276;-80
2023/01/21 04:40:35;;;;;;;;;;;;;;;;;;5025960;28;19917;-80
2023/01/21 04:43:01;;;;;;;;;;;;;;;;;;5046441;28;19916;-80
2023/01/21 04:45:29;;;;;;;;;;;;;;;;;;5064402;28;19966;-81
2023/01/21 04:47:55;;;;;;;;;;;;;;;;;;5061514;28;20375;-82
2023/01/21 04:50:21;;;;;;;;;;;;;;;;;;5039885;28;19974;-81
2023/01/21 04:52:47;;;;;;;;;;;;;;;;;;5044085;28;19972;-80
2023/01/21 04:55:15;;;;;;;;;;;;;;;;;;5055608;28;19964;-81
2023/01/21 04:57:41;;;;;;;;;;;;;;;;;;5044183;28;19932;-81
2023/01/21 05:00:07;;;;;;;;;;;;;;;;;;5060922;28;20450;-81
2023/01/21 05:02:33;;;;;;;;;;;;;;;;;;5043026;28;19920;-82
2023/01/21 05:04:59;;;;;;;;;;;;;;;;;;5042522;28;19913;-82
2023/01/21 05:07:25;;;;;;;;;;;;;;;;;;5041794;28;19919;-81
2023/01/21 05:09:51;;;;;;;;;;;;;;;;;;5048427;28;19958;-81
2023/01/21 05:12:17;;;;;;;;;;;;;;;;;;5038536;28;19940;-80
2023/01/21 05:14:45;;;;;;;;;;;;;;;;;;5050922;28;19919;-81
2023/01/21 05:17:11;;;;;;;;;;;;;;;;;;5032951;28;19952;-79
2023/01/21 05:19:39;;;;;;;;;;;;;;;;;;5046313;28;20398;-80
2023/01/21 05:22:05;;;;;;;;;;;;;;;;;;5075324;28;19917;-82
2023/01/21 05:24:31;;;;;;;;;;;;;;;;;;5053911;28;19962;-80
2023/01/21 05:26:57;;;;;;;;;;;;;;;;;;5071626;28;19988;-80
2023/01/21 05:29:23;;;;;;;;;;;;;;;;;;5031383;28;19973;-81
2023/01/21 05:31:48;;;;;;;;;;;;;;;;;;5054326;28;19923;-79
2023/01/21 05:34:14;;;;;;;;;;;;;;;;;;5033126;28;19913;-80
2023/01/21 05:36:40;;;;;;;;;;;;;;;;;;5058946;28;19968;-80
2023/01/21 05:39:06;;;;;;;;;;;;;;;;;;5044562;28;19923;-81
2023/01/21 05:41:32;;;;;;;;;;;;;;;;;;5057855;28;19917;-81
2023/01/21 05:43:58;;;;;;;;;;;;;;;;;;5048186;28;19920;-82
2023/01/21 05:46:24;;;;;;;;;;;;;;;;;;5052011;28;19912;-79
2023/01/21 05:48:50;;;;;;;;;;;;;;;;;;5039258;28;19920;-81
2023/01/21 05:51:15;;;;;;;;;;;;;;;;;;5051009;28;19917;-82
2023/01/21 05:53:44;;;;;;;;;;;;;;;;;;5063825;28;19936;-80
2023/01/21 05:56:10;;;;;;;;;;;;;;;;;;5059608;28;19913;-81
2023/01/21 05:58:36;;;;;;;;;;;;;;;;;;5050504;28;19928;-80
2023/01/21 06:01:02;;;;;;;;;;;;;;;;;;5042184;28;19909;-79
2023/01/21 06:03:27;;;;;;;;;;;;;;;;;;5061034;28;20472;-79
2023/01/21 06:05:53;;;;;;;;;;;;;;;;;;5053130;28;19913;-81
2023/01/21 06:08:19;;;;;;;;;;;;;;;;;;5047135;28;19913;-84
2023/01/21 06:10:45;;;;;;;;;;;;;;;;;;5062595;28;19919;-81
2023/01/21 06:13:11;;;;;;;;;;;;;;;;;;5034709;28;19977;-81
2023/01/21 06:15:44;;;;;;;;;;;;;;;;;;5047090;28;19919;-81
2023/01/21 06:18:10;;;;;;;;;;;;;;;;;;5046002;28;19913;-79
2023/01/21 06:20:36;;;;;;;;;;;;;;;;;;5055854;28;19934;-80
2023/01/21 06:23:02;;;;;;;;;;;;;;;;;;5044267;28;19909;-80
2023/01/21 06:25:31;;;;;;;;;;;;;;;;;;5041813;28;19912;-79
2023/01/21 06:27:56;;;;;;;;;;;;;;;;;;5049294;28;19931;-79
2023/01/21 06:30:22;;;;;;;;;;;;;;;;;;5046690;28;19920;-80
2023/01/21 06:32:48;;;;;;;;;;;;;;;;;;5065452;28;19913;-80
2023/01/21 06:35:14;;;;;;;;;;;;;;;;;;5053863;28;19956;-83
2023/01/21 06:37:40;;;;;;;;;;;;;;;;;;5062711;28;19983;-81
2023/01/21 06:40:07;;;;;;;;;;;;;;;;;;5039955;28;19917;-80
2023/01/21 06:42:33;;;;;;;;;;;;;;;;;;5045761;28;19935;-81
2023/01/21 06:44:59;;;;;;;;;;;;;;;;;;5041658;28;19913;-80
2023/01/21 06:47:25;;;;;;;;;;;;;;;;;;5052987;28;19913;-80
2023/01/21 06:49:51;;;;;;;;;;;;;;;;;;5056660;28;19913;-81
2023/01/21 06:52:17;;;;;;;;;;;;;;;;;;5049330;28;19909;-82
2023/01/21 06:54:42;;;;;;;;;;;;;;;;;;5065940;28;19912;-81
2023/01/21 06:57:08;;;;;;;;;;;;;;;;;;5066951;28;19943;-81
2023/01/21 06:59:34;;;;;;;;;;;;;;;;;;5069219;28;19924;-82
2023/01/21 07:02:00;;;;;;;;;;;;;;;;;;5052041;28;19963;-81
2023/01/21 07:04:26;;;;;;;;;;;;;;;;;;5073300;28;19943;-80
2023/01/21 07:06:52;;;;;;;;;;;;;;;;;;5055374;28;19912;-80
2023/01/21 07:09:18;;;;;;;;;;;;;;;;;;5049377;28;19909;-82
2023/01/21 07:11:44;;;;;;;;;;;;;;;;;;5045521;28;19919;-81
2023/01/21 07:14:10;;;;;;;;;;;;;;;;;;5052900;28;19908;-80
2023/01/21 07:16:38;;;;;;;;;;;;;;;;;;5050353;28;19943;-82
2023/01/21 07:19:04;;;;;;;;;;;;;;;;;;5047307;28;19967;-83
2023/01/21 07:21:30;;;;;;;;;;;;;;;;;;5066117;28;19947;-80
2023/01/21 07:23:56;;;;;;;;;;;;;;;;;;5051352;28;19913;-81
2023/01/21 07:26:22;;;;;;;;;;;;;;;;;;5052354;28;20330;-79
2023/01/21 07:28:47;;;;;;;;;;;;;;;;;;5059508;28;19945;-80
2023/01/21 07:31:16;;;;;;;;;;;;;;;;;;5066584;28;19972;-78
2023/01/21 07:33:42;;;;;;;;;;;;;;;;;;5050777;28;19917;-80
2023/01/21 07:36:08;;;;;;;;;;;;;;;;;;5064467;28;19919;-81
2023/01/21 07:38:33;;;;;;;;;;;;;;;;;;5049336;28;20023;-80
2023/01/21 07:40:59;;;;;;;;;;;;;;;;;;5061795;28;19981;-82
2023/01/21 07:43:27;;;;;;;;;;;;;;;;;;5070382;28;20008;-81
2023/01/21 07:45:55;;;;;;;;;;;;;;;;;;5053703;28;19917;-81
2023/01/21 07:48:21;;;;;;;;;;;;;;;;;;5070000;28;19908;-81
2023/01/21 07:50:49;;;;;;;;;;;;;;;;;;5051674;28;20326;-82
2023/01/21 07:53:16;;;;;;;;;;;;;;;;;;5056236;28;20000;-81
2023/01/21 07:55:42;;;;;;;;;;;;;;;;;;5081014;28;19987;-82
2023/01/21 07:58:09;;;;;;;;;;;;;;;;;;5066412;28;19921;-82
2023/01/21 08:00:37;;;;;;;;;;;;;;;;;;5055680;28;19920;-82
2023/01/21 08:03:03;;;;;;;;;;;;;;;;;;5062738;28;19913;-82
2023/01/21 08:05:29;;;;;;;;;;;;;;;;;;5052249;28;19919;-79
2023/01/21 08:07:55;;;;;;;;;;;;;;;;;;5070415;28;19908;-82
2023/01/21 08:10:21;;;;;;;;;;;;;;;;;;5050405;28;19920;-84
2023/01/21 08:12:49;;;;;;;;;;;;;;;;;;5051305;28;19909;-81
2023/01/21 08:15:17;;;;;;;;;;;;;;;;;;5069630;28;19913;-82
2023/01/21 08:17:46;;;;;;;;;;;;;;;;;;5051620;28;19916;-81
2023/01/21 08:20:12;;;;;;;;;;;;;;;;;;5046801;28;19913;-81
2023/01/21 08:22:40;;;;;;;;;;;;;;;;;;5047106;28;19919;-82
2023/01/21 08:25:06;;;;;;;;;;;;;;;;;;5054090;28;19913;-81
2023/01/21 08:27:32;;;;;;;;;;;;;;;;;;5048698;28;20305;-81
2023/01/21 08:29:58;;;;;;;;;;;;;;;;;;5053844;28;19913;-82
2023/01/21 08:32:24;;;;;;;;;;;;;;;;;;5065570;28;19935;-81
2023/01/21 08:34:52;;;;;;;;;;;;;;;;;;5064894;28;19913;-79
2023/01/21 08:37:18;;;;;;;;;;;;;;;;;;5042878;28;19912;-81
2023/01/21 08:39:44;;;;;;;;;;;;;;;;;;5049502;28;19924;-81
2023/01/21 08:42:10;;;;;;;;;;;;;;;;;;5036821;28;20326;-81
2023/01/21 08:44:36;;;;;;;;;;;;;;;;;;5039653;28;19920;-83
2023/01/21 08:47:04;;;;;;;;;;;;;;;;;;5052567;28;19919;-83
2023/01/21 08:49:30;;;;;;;;;;;;;;;;;;5068068;28;19913;-81
2023/01/21 08:51:56;;;;;;;;;;;;;;;;;;5049443;28;19981;-81
2023/01/21 08:54:22;;;;;;;;;;;;;;;;;;5049736;28;19913;-81
2023/01/21 08:56:48;;;;;;;;;;;;;;;;;;5049346;28;19996;-80
2023/01/21 08:59:14;;;;;;;;;;;;;;;;;;5067754;28;19976;-81
2023/01/21 09:01:40;;;;;;;;;;;;;;;;;;5067478;28;19963;-82
2023/01/21 09:04:06;;;;;;;;;;;;;;;;;;5046518;28;20319;-81
2023/01/21 09:06:34;;;;;;;;;;;;;;;;;;5068318;28;20053;-82
2023/01/21 09:09:00;;;;;;;;;;;;;;;;;;5044755;28;19980;-83
2023/01/21 09:11:28;;;;;;;;;;;;;;;;;;5050549;28;19916;-83
2023/01/21 09:14:02;;;;;;;;;;;;;;;;;;5066695;28;19971;-82
2023/01/21 09:16:27;;;;;;;;;;;;;;;;;;5067347;28;19916;-83
2023/01/21 09:18:56;;;;;;;;;;;;;;;;;;5038319;28;19917;-82
2023/01/21 09:21:39;;;;;;;;;;;;;;;;;;5071158;28;20374;-80
2023/01/21 09:24:05;;;;;;;;;;;;;;;;;;5069329;28;19909;-83
2023/01/21 09:26:33;;;;;;;;;;;;;;;;;;5050648;28;19943;-83
2023/01/21 09:28:59;;;;;;;;;;;;;;;;;;5048822;28;19952;-83
2023/01/21 09:31:25;;;;;;;;;;;;;;;;;;5038087;28;19913;-82
2023/01/21 09:33:54;;;;;;;;;;;;;;;;;;5047483;28;19995;-82
2023/01/21 09:36:22;;;;;;;;;;;;;;;;;;5063644;28;19913;-81
2023/01/21 09:38:48;;;;;;;;;;;;;;;;;;5064992;28;19917;-82
2023/01/21 09:41:14;;;;;;;;;;;;;;;;;;5048521;28;19919;-83
2023/01/21 09:43:40;;;;;;;;;;;;;;;;;;5048782;28;19934;-82
2023/01/21 09:46:06;;;;;;;;;;;;;;;;;;5049119;28;19912;-81
2023/01/21 09:48:32;;;;;;;;;;;;;;;;;;5048358;28;19913;-82
2023/01/21 09:50:58;;;;;;;;;;;;;;;;;;5066290;28;19919;-79
2023/01/21 09:53:24;;;;;;;;;;;;;;;;;;5049911;28;19913;-85
2023/01/21 09:55:57;;;;;;;;;;;;;;;;;;5063222;28;19913;-81
2023/01/21 09:58:23;;;;;;;;;;;;;;;;;;5065586;28;19920;-80
2023/01/21 10:00:49;;;;;;;;;;;;;;;;;;5064335;28;20638;-83
2023/01/21 10:03:15;;;;;;;;;;;;;;;;;;5053054;28;19913;-81
2023/01/21 10:05:41;;;;;;;;;;;;;;;;;;5048136;28;19979;-82
2023/01/21 10:08:07;;;;;;;;;;;;;;;;;;5027540;28;19967;-82
2023/01/21 10:10:33;;;;;;;;;;;;;;;;;;5027690;28;19980;-84
2023/01/21 10:13:06;;;;;;;;;;;;;;;;;;5047947;28;19916;-84
2023/01/21 10:15:39;;;;;;;;;;;;;;;;;;5065338;28;19924;-81
2023/01/21 10:18:13;;;;;;;;;;;;;;;;;;5048519;28;19916;-82
2023/01/21 10:20:39;;;;;;;;;;;;;;;;;;5060797;28;20366;-81
2023/01/21 10:23:04;;;;;;;;;;;;;;;;;;5037716;28;19920;-80
2023/01/21 10:25:30;;;;;;;;;;;;;;;;;;5046364;28;19917;-81
2023/01/21 10:27:56;;;;;;;;;;;;;;;;;;5057716;28;20387;-82
2023/01/21 10:30:22;;;;;;;;;;;;;;;;;;5071345;28;19966;-84
2023/01/21 10:32:48;;;;;;;;;;;;;;;;;;5050765;28;19932;-83
2023/01/21 10:35:14;;;;;;;;;;;;;;;;;;5060095;28;19913;-84
2023/01/21 10:37:40;;;;;;;;;;;;;;;;;;5048950;28;19924;-83
2023/01/21 10:40:06;;;;;;;;;;;;;;;;;;5073111;28;20440;-84
2023/01/21 10:42:32;;;;;;;;;;;;;;;;;;5043184;28;19917;-84
2023/01/21 10:44:58;;;;;;;;;;;;;;;;;;5055049;28;20295;-82
2023/01/21 10:47:24;;;;;;;;;;;;;;;;;;5042757;28;19966;-86
2023/01/21 10:49:50;;;;;;;;;;;;;;;;;;5055438;28;19968;-84
2023/01/21 10:52:18;;;;;;;;;;;;;;;;;;5069568;28;19935;-84
2023/01/21 10:54:44;;;;;;;;;;;;;;;;;;5052420;28;19964;-84
2023/01/21 10:57:10;;;;;;;;;;;;;;;;;;5071200;28;19932;-84
2023/01/21 10:59:36;;;;;;;;;;;;;;;;;;5053202;28;20219;-83
2023/01/21 11:02:01;;;;;;;;;;;;;;;;;;5049394;28;19942;-83
2023/01/21 11:04:27;;;;;;;;;;;;;;;;;;5033745;28;20283;-84
2023/01/21 11:06:53;;;;;;;;;;;;;;;;;;5033661;28;19913;-84
2023/01/21 11:09:22;;;;;;;;;;;;;;;;;;5061079;28;19917;-84
2023/01/21 11:11:48;;;;;;;;;;;;;;;;;;5068793;28;19901;-85
2023/01/21 11:14:14;;;;;;;;;;;;;;;;;;5049862;28;20215;-83
2023/01/21 11:16:42;;;;;;;;;;;;;;;;;;5056493;28;19912;-82
2023/01/21 11:19:08;;;;;;;;;;;;;;;;;;5070252;28;19927;-84
2023/01/21 11:21:41;;;;;;;;;;;;;;;;;;5059049;28;19917;-83
2023/01/21 11:24:07;;;;;;;;;;;;;;;;;;5078117;28;19939;-84
2023/01/21 11:26:33;;;;;;;;;;;;;;;;;;5049635;28;19913;-83
2023/01/21 11:28:59;;;;;;;;;;;;;;;;;;5041783;28;19920;-83
2023/01/21 11:31:28;;;;;;;;;;;;;;;;;;5064589;28;19935;-82
2023/01/21 11:33:54;;;;;;;;;;;;;;;;;;5067343;28;19956;-83
2023/01/21 11:36:20;;;;;;;;;;;;;;;;;;5049246;28;19935;-82
2023/01/21 11:38:46;;;;;;;;;;;;;;;;;;5083615;28;19924;-83
2023/01/21 11:41:12;;;;;;;;;;;;;;;;;;5049455;28;20391;-81
2023/01/21 11:43:38;;;;;;;;;;;;;;;;;;5067262;28;19996;-83
2023/01/21 11:46:04;;;;;;;;;;;;;;;;;;5066024;28;20031;-82
2023/01/21 11:48:29;;;;;;;;;;;;;;;;;;5052305;28;20374;-84
2023/01/21 11:50:55;;;;;;;;;;;;;;;;;;5049879;28;19984;-82
2023/01/21 11:53:21;;;;;;;;;;;;;;;;;;5049803;28;19973;-85
2023/01/21 11:55:47;;;;;;;;;;;;;;;;;;5046660;28;19912;-83
2023/01/21 11:58:13;;;;;;;;;;;;;;;;;;5065480;28;19921;-85
2023/01/21 12:00:39;;;;;;;;;;;;;;;;;;5045691;28;19913;-83
2023/01/21 12:03:05;;;;;;;;;;;;;;;;;;5046925;28;19940;-85
2023/01/21 12:05:31;;;;;;;;;;;;;;;;;;5061255;28;19913;-86
2023/01/21 12:07:57;;;;;;;;;;;;;;;;;;5045838;28;19909;-83
2023/01/21 12:10:25;;;;;;;;;;;;;;;;;;5047720;28;19913;-85
2023/01/21 12:12:51;;;;;;;;;;;;;;;;;;5064951;28;19956;-85
2023/01/21 12:15:20;;;;;;;;;;;;;;;;;;5044010;28;19927;-84
2023/01/21 12:17:46;;;;;;;;;;;;;;;;;;5046432;28;19912;-86
2023/01/21 12:20:14;;;;;;;;;;;;;;;;;;5048618;28;19979;-86
2023/01/21 12:22:42;;;;;;;;;;;;;;;;;;5036541;28;19913;-86
2023/01/21 12:25:08;;;;;;;;;;;;;;;;;;5056974;28;19940;-85
2023/01/21 12:27:34;;;;;;;;;;;;;;;;;;5029423;28;19916;-85
2023/01/21 12:30:03;;;;;;;;;;;;;;;;;;5065051;28;19956;-85
2023/01/21 12:32:28;;;;;;;;;;;;;;;;;;5049491;28;19921;-84
2023/01/21 12:34:54;;;;;;;;;;;;;;;;;;5056900;28;19924;-85
2023/01/21 12:37:25;;;;;;;;;;;;;;;;;;5059315;28;19913;-85
2023/01/21 12:39:51;;;;;;;;;;;;;;;;;;5041783;28;19916;-84
2023/01/21 12:42:17;;;;;;;;;;;;;;;;;;5062116;28;19932;-84
2023/01/21 12:44:43;;;;;;;;;;;;;;;;;;5049786;28;19912;-85
2023/01/21 12:47:12;;;;;;;;;;;;;;;;;;5045833;28;19913;-85
2023/01/21 12:49:40;;;;;;;;;;;;;;;;;;5061773;28;19916;-85
2023/01/21 12:52:06;;;;;;;;;;;;;;;;;;5034782;28;19913;-86
2023/01/21 12:54:33;;;;;;;;;;;;;;;;;;5041045;28;19913;-85
2023/01/21 12:57:01;;;;;;;;;;;;;;;;;;5041969;28;19921;-86
2023/01/21 12:59:27;;;;;;;;;;;;;;;;;;5033975;28;19914;-83
2023/01/21 13:01:53;;;;;;;;;;;;;;;;;;5038975;28;19931;-85
2023/01/21 13:04:19;;;;;;;;;;;;;;;;;;5040151;28;19917;-86
2023/01/21 13:06:45;;;;;;;;;;;;;;;;;;5049246;28;19913;-85
2023/01/21 13:09:11;;;;;;;;;;;;;;;;;;5049952;28;19913;-84
2023/01/21 13:17:12;;;;;;;;;;;;;;;;;;5059970;22;19952;-83
2023/01/21 13:19:38;;;;;;;;;;;;;;;;;;5003172;28;19960;-86
2023/01/21 13:22:06;;;;;;;;;;;;;;;;;;5016990;28;20434;-86
2023/01/21 13:24:32;;;;;;;;;;;;;;;;;;5018807;28;20008;-86
2023/01/21 13:26:58;;;;;;;;;;;;;;;;;;5013878;28;19952;-86
2023/01/21 13:29:25;;;;;;;;;;;;;;;;;;4969040;28;20383;-87
2023/01/21 13:31:51;;;;;;;;;;;;;;;;;;4992305;28;19914;-86
2023/01/21 13:34:20;;;;;;;;;;;;;;;;;;4976594;28;20052;-86
2023/01/21 13:36:46;;;;;;;;;;;;;;;;;;4994600;28;20016;-87
2023/01/21 13:39:11;;;;;;;;;;;;;;;;;;4992256;28;20072;-88
2023/01/21 13:41:40;;;;;;;;;;;;;;;;;;5001804;28;19972;-88
2023/01/21 13:44:06;;;;;;;;;;;;;;;;;;5002129;28;19957;-86
2023/01/21 13:46:39;;;;;;;;;;;;;;;;;;5003699;28;19957;-86
2023/01/21 13:49:05;;;;;;;;;;;;;;;;;;5009806;28;20403;-87
2023/01/21 13:51:31;;;;;;;;;;;;;;;;;;4999051;28;19914;-88
2023/01/21 13:53:57;;;;;;;;;;;;;;;;;;4994415;28;19916;-87
2023/01/21 13:56:23;;;;;;;;;;;;;;;;;;5012417;28;20280;-87
2023/01/21 13:58:49;;;;;;;;;;;;;;;;;;4990972;28;19990;-87
2023/01/21 14:01:15;;;;;;;;;;;;;;;;;;5001131;28;19968;-86
2023/01/21 14:03:41;;;;;;;;;;;;;;;;;;5001620;28;19914;-87
2023/01/21 14:06:07;;;;;;;;;;;;;;;;;;4992870;28;20368;-88
2023/01/21 14:08:32;;;;;;;;;;;;;;;;;;4991612;28;19965;-89
2023/01/21 14:10:58;;;;;;;;;;;;;;;;;;4993358;28;19910;-87
2023/01/21 14:13:24;;;;;;;;;;;;;;;;;;4979934;28;19910;-86
2023/01/21 14:15:50;;;;;;;;;;;;;;;;;;4974069;28;19918;-88
2023/01/21 14:18:16;;;;;;;;;;;;;;;;;;4974838;28;20439;-86
2023/01/21 14:20:42;;;;;;;;;;;;;;;;;;4975661;28;19910;-86
2023/01/21 14:23:10;;;;;;;;;;;;;;;;;;4979310;28;19990;-86
2023/01/21 14:25:36;;;;;;;;;;;;;;;;;;4992571;28;19914;-86
2023/01/21 14:28:02;;;;;;;;;;;;;;;;;;4993964;28;19933;-87
2023/01/21 14:30:28;;;;;;;;;;;;;;;;;;4993468;28;19914;-86
2023/01/21 14:32:54;;;;;;;;;;;;;;;;;;4988370;28;19914;-87
2023/01/21 14:35:20;;;;;;;;;;;;;;;;;;4978716;28;19917;-87
2023/01/21 14:37:49;;;;;;;;;;;;;;;;;;4978284;28;20013;-87
2023/01/21 14:40:17;;;;;;;;;;;;;;;;;;4992384;28;19921;-89
2023/01/21 14:42:43;;;;;;;;;;;;;;;;;;4988143;28;19910;-89
2023/01/21 14:45:09;;;;;;;;;;;;;;;;;;4999203;28;20051;-87
2023/01/21 14:47:37;;;;;;;;;;;;;;;;;;4982717;28;19910;-86
2023/01/21 14:50:03;;;;;;;;;;;;;;;;;;4975620;28;19962;-86
2023/01/21 14:52:29;;;;;;;;;;;;;;;;;;4987526;28;19972;-86
2023/01/21 14:54:55;;;;;;;;;;;;;;;;;;4979054;28;20291;-86
2023/01/21 14:57:24;;;;;;;;;;;;;;;;;;4976144;28;19914;-86
2023/01/21 14:59:50;;;;;;;;;;;;;;;;;;4992378;28;19917;-86
2023/01/21 15:02:18;;;;;;;;;;;;;;;;;;4992845;28;19917;-85
2023/01/21 15:04:44;;;;;;;;;;;;;;;;;;4975511;28;19910;-85
2023/01/21 15:07:10;;;;;;;;;;;;;;;;;;4992975;28;19917;-86
2023/01/21 15:09:36;;;;;;;;;;;;;;;;;;4975104;28;19910;-87
2023/01/21 15:12:02;;;;;;;;;;;;;;;;;;4992984;28;19953;-87
2023/01/21 15:14:27;;;;;;;;;;;;;;;;;;4977391;28;19910;-86
2023/01/21 15:16:53;;;;;;;;;;;;;;;;;;4978684;28;20390;-86
2023/01/21 15:19:19;;;;;;;;;;;;;;;;;;4991827;28;20009;-86
2023/01/21 15:21:45;;;;;;;;;;;;;;;;;;4985653;28;19910;-87
2023/01/21 15:24:11;;;;;;;;;;;;;;;;;;4984144;28;20005;-86
2023/01/21 15:26:41;;;;;;;;;;;;;;;;;;5004976;28;19913;-86
2023/01/21 15:29:14;;;;;;;;;;;;;;;;;;5002251;28;19937;-87
2023/01/21 15:31:40;;;;;;;;;;;;;;;;;;5004432;28;19968;-86
2023/01/21 15:34:06;;;;;;;;;;;;;;;;;;5007294;28;20012;-86
2023/01/21 15:36:33;;;;;;;;;;;;;;;;;;5002749;28;20357;-86
2023/01/21 15:38:59;;;;;;;;;;;;;;;;;;5001723;28;19940;-85
2023/01/21 15:41:25;;;;;;;;;;;;;;;;;;5001893;28;19922;-85
2023/01/21 15:43:53;;;;;;;;;;;;;;;;;;4998918;28;20387;-87
2023/01/21 15:46:29;;;;;;;;;;;;;;;;;;;;;
2023/01/21 15:48:58;;;;;;;;;;;;;;;;;;4991819;28;19997;-85
2023/01/21 15:51:27;;;;;;;;;;;;;;;;;;5007535;28;19910;-86
2023/01/21 15:53:53;;;;;;;;;;;;;;;;;;5008456;28;20390;-85
2023/01/21 15:56:19;;;;;;;;;;;;;;;;;;4987303;28;20287;-86
2023/01/21 15:58:45;;;;;;;;;;;;;;;;;;4986995;28;19914;-85
2023/01/21 16:01:10;;;;;;;;;;;;;;;;;;5004758;28;19910;-86
2023/01/21 16:03:39;;;;;;;;;;;;;;;;;;5017669;28;19909;-85
2023/01/21 16:06:05;;;;;;;;;;;;;;;;;;5003140;28;19910;-86
2023/01/21 16:08:31;;;;;;;;;;;;;;;;;;5002857;28;19914;-86
2023/01/21 16:10:57;;;;;;;;;;;;;;;;;;5007166;28;19932;-87
2023/01/21 16:13:23;;;;;;;;;;;;;;;;;;5004046;28;19951;-86
2023/01/21 16:15:49;;;;;;;;;;;;;;;;;;5007470;28;19973;-85
2023/01/21 16:18:15;;;;;;;;;;;;;;;;;;5013333;28;20487;-87
2023/01/21 16:20:43;;;;;;;;;;;;;;;;;;4985250;28;19916;-86
2023/01/21 16:23:11;;;;;;;;;;;;;;;;;;4981428;28;19917;-86
2023/01/21 16:25:39;;;;;;;;;;;;;;;;;;4963377;28;19910;-86
2023/01/21 16:28:05;;;;;;;;;;;;;;;;;;4977229;28;20372;-86
2023/01/21 16:30:37;;;;;;;;;;;;;;;;;;4986866;28;20075;-86
2023/01/21 16:33:03;;;;;;;;;;;;;;;;;;4978740;28;19917;-86
2023/01/21 16:35:29;;;;;;;;;;;;;;;;;;4997214;28;19918;-86
2023/01/21 16:37:56;;;;;;;;;;;;;;;;;;4997775;28;19913;-86
2023/01/21 16:40:24;;;;;;;;;;;;;;;;;;4996790;28;19916;-85
2023/01/21 16:42:50;;;;;;;;;;;;;;;;;;4998333;28;20000;-86
2023/01/21 16:45:16;;;;;;;;;;;;;;;;;;5004374;28;19926;-86
2023/01/21 16:47:42;;;;;;;;;;;;;;;;;;4982128;28;19910;-87
2023/01/21 16:50:09;;;;;;;;;;;;;;;;;;4983015;28;19910;-86